This is the latest recevied weather packets stored in our database for station/object MEGLR. If no packets are shown the sender has not sent any weather packets the latest 10 day(s).
| Time | Temp. | Humidity | Pressure | Rain* | Wind** | Luminosity | Snow |
|---|---|---|---|---|---|---|---|
| 1787612403 | 23.33° C | 63% | 0 hPa | - | - | - | - |
| 1787611803 | 20° C | 82% | 0 hPa | - | - | - | - |
| 1787611203 | 20.56° C | 79% | 0 hPa | - | - | - | - |
| 1787610603 | 23.89° C | 62% | 0 hPa | - | - | - | - |
| 1787610003 | 23.89° C | 60% | 0 hPa | - | - | - | - |
| 1787609403 | 24.44° C | 59% | 0 hPa | - | - | - | - |
| 1787608804 | 24.44° C | 59% | 0 hPa | - | - | - | - |
| 1787608203 | 23.89° C | 61% | 0 hPa | - | - | - | - |
| 1787607603 | 23.33° C | 63% | 0 hPa | - | - | - | - |
| 1787607004 | 22.22° C | 67% | 0 hPa | - | - | - | - |
| 1787606403 | 22.78° C | 65% | 0 hPa | - | - | - | - |
| 1787605803 | 22.22° C | 67% | 0 hPa | - | - | - | - |
| 1787605203 | 21.67° C | 68% | 0 hPa | - | - | - | - |
| 1787604603 | 22.78° C | 62% | 0 hPa | - | - | - | - |
| 1787604003 | 22.22° C | 62% | 0 hPa | - | - | - | - |
| 1787603403 | 21.67° C | 65% | 0 hPa | - | - | - | - |
| 1787602803 | 21.11° C | 68% | 0 hPa | - | - | - | - |
| 1787602203 | 21.67° C | 65% | 0 hPa | - | - | - | - |
| 1787601603 | 24.44° C | 51% | 0 hPa | - | - | - | - |
| 1787601003 | 23.89° C | 56% | 0 hPa | - | - | - | - |
| 1787600403 | 22.78° C | 62% | 0 hPa | - | - | - | - |
| 1787599803 | 22.78° C | 62% | 0 hPa | - | - | - | - |
| 1787599203 | 22.78° C | 62% | 0 hPa | - | - | - | - |
| 1787598603 | 22.22° C | 62% | 0 hPa | - | - | - | - |
| 1787598004 | 20.56° C | 70% | 0 hPa | - | - | - | - |
* Rain since midnight (hover to see other rain measurements)
** Current wind speed in m/s (hover to see current wind gust speed)